createdAt,value
2019-03-15T00:00:32.487Z,7.10
2019-03-15T00:03:01.300Z,8.00
2019-03-15T00:05:30.314Z,9.30
2019-03-15T00:07:59.150Z,9.90
2019-03-15T00:10:28.482Z,9.50
2019-03-15T00:12:57.257Z,9.60
2019-03-15T00:15:28.120Z,10.30
2019-03-15T00:17:58.028Z,10.17
2019-03-15T00:20:27.279Z,11.13
2019-03-15T00:25:38.243Z,11.07
2019-03-15T00:28:07.888Z,11.00
2019-03-15T00:30:37.165Z,9.97
2019-03-15T00:33:05.960Z,10.50
2019-03-15T00:35:35.865Z,8.97
2019-03-15T00:38:05.054Z,7.90
2019-03-15T00:40:33.940Z,9.10
2019-03-15T00:43:03.043Z,8.50
2019-03-15T00:45:32.124Z,7.97
2019-03-15T00:48:01.236Z,7.60
2019-03-15T00:50:30.498Z,8.87
2019-03-15T00:52:59.432Z,8.40
2019-03-15T00:55:28.391Z,10.97
2019-03-15T00:57:57.319Z,11.20
2019-03-15T01:00:26.651Z,11.13
2019-03-15T01:02:55.568Z,10.57
2019-03-15T01:05:24.635Z,10.40
2019-03-15T01:07:53.548Z,10.50
2019-03-15T01:10:22.732Z,10.43
2019-03-15T01:12:51.639Z,12.13
2019-03-15T01:15:20.676Z,11.90
2019-03-15T01:17:49.487Z,13.13
2019-03-15T01:20:18.457Z,13.73
2019-03-15T01:22:47.634Z,13.67
2019-03-15T01:25:16.525Z,13.60
2019-03-15T01:27:45.254Z,13.23
2019-03-15T01:30:14.122Z,14.13
2019-03-15T01:32:42.971Z,13.10
2019-03-15T01:35:11.795Z,13.07
2019-03-15T01:37:40.920Z,13.60
2019-03-15T01:40:09.939Z,13.10
2019-03-15T01:42:38.760Z,13.30
2019-03-15T01:45:08.266Z,12.47
2019-03-15T01:47:37.034Z,12.97
2019-03-15T01:50:06.637Z,12.57
2019-03-15T01:52:35.552Z,13.00
2019-03-15T01:55:04.430Z,12.80
2019-03-15T01:57:33.198Z,12.63
2019-03-15T02:00:02.156Z,12.40
2019-03-15T02:02:31.025Z,12.90
2019-03-15T02:04:59.911Z,12.77
2019-03-15T02:07:28.693Z,12.50
2019-03-15T02:09:57.510Z,14.63
2019-03-15T02:12:26.339Z,13.63
2019-03-15T02:14:55.367Z,13.23
2019-03-15T02:17:24.219Z,13.37
2019-03-15T02:19:53.076Z,13.47
2019-03-15T02:22:21.946Z,13.10
2019-03-15T02:24:51.031Z,12.97
2019-03-15T02:27:24.121Z,13.90
2019-03-15T02:29:52.935Z,13.10
2019-03-15T02:32:21.675Z,13.20
2019-03-15T02:34:56.790Z,14.30
2019-03-15T02:37:25.669Z,15.17
2019-03-15T02:39:54.881Z,15.40
2019-03-15T02:42:25.507Z,15.50
2019-03-15T02:44:54.878Z,16.00
2019-03-15T02:47:23.650Z,14.90
2019-03-15T02:49:52.663Z,14.43
2019-03-15T02:52:21.387Z,15.27
2019-03-15T02:54:50.339Z,15.03
2019-03-15T02:57:19.067Z,15.20
2019-03-15T02:59:47.885Z,14.93
2019-03-15T03:02:16.812Z,15.13
2019-03-15T03:04:45.565Z,14.70
2019-03-15T03:07:14.331Z,14.87
2019-03-15T03:09:43.176Z,15.00
2019-03-15T03:12:12.334Z,15.40
2019-03-15T03:14:41.124Z,14.67
2019-03-15T03:17:09.963Z,15.50
2019-03-15T03:19:38.859Z,15.37
2019-03-15T03:22:09.060Z,14.50
2019-03-15T03:24:38.638Z,16.10
2019-03-15T03:27:07.755Z,15.80
2019-03-15T03:29:37.199Z,15.50
2019-03-15T03:32:06.049Z,15.90
2019-03-15T03:34:35.149Z,16.57
2019-03-15T03:37:04.325Z,16.03
2019-03-15T03:39:34.350Z,16.90
2019-03-15T03:42:03.928Z,16.23
2019-03-15T03:44:32.710Z,17.07
2019-03-15T03:47:02.204Z,16.10
2019-03-15T03:49:31.399Z,16.30
2019-03-15T03:52:00.928Z,15.90
2019-03-15T03:54:30.441Z,16.67
2019-03-15T03:56:59.575Z,16.00
2019-03-15T03:59:28.324Z,18.03
2019-03-15T04:01:57.354Z,16.10
2019-03-15T04:04:26.247Z,16.20
2019-03-15T04:06:55.643Z,16.60
2019-03-15T04:09:24.419Z,15.93
2019-03-15T04:11:55.659Z,15.57
2019-03-15T04:14:24.212Z,18.43
2019-03-15T04:16:53.003Z,15.73
2019-03-15T04:19:22.234Z,17.70
2019-03-15T04:21:51.028Z,17.80
2019-03-15T04:24:19.986Z,17.53
2019-03-15T04:27:08.023Z,16.87
2019-03-15T04:29:37.003Z,16.87
2019-03-15T04:32:06.076Z,17.00
2019-03-15T04:34:34.809Z,16.93
2019-03-15T04:37:04.010Z,16.63
2019-03-15T04:39:32.828Z,16.90
2019-03-15T04:42:01.643Z,17.97
2019-03-15T04:44:30.484Z,17.13
2019-03-15T04:46:59.525Z,16.97
2019-03-15T04:49:28.631Z,17.60
2019-03-15T04:51:57.624Z,16.80
2019-03-15T04:54:26.414Z,16.43
2019-03-15T04:56:55.904Z,16.20
2019-03-15T04:59:24.647Z,17.23
2019-03-15T05:01:53.780Z,16.73
2019-03-15T05:04:22.612Z,16.80
2019-03-15T05:06:51.427Z,15.97
2019-03-15T05:09:20.216Z,17.53
2019-03-15T05:11:49.040Z,17.90
2019-03-15T05:14:17.905Z,16.27
2019-03-15T05:16:47.088Z,16.33
2019-03-15T05:19:15.905Z,16.50
2019-03-15T05:21:44.739Z,16.80
2019-03-15T05:24:13.623Z,16.53
2019-03-15T05:26:42.589Z,15.97
2019-03-15T05:29:11.373Z,17.10
2019-03-15T05:31:40.171Z,17.40
2019-03-15T05:34:09.052Z,16.00
2019-03-15T05:36:38.245Z,16.83
2019-03-15T05:39:07.609Z,18.10
2019-03-15T05:41:36.459Z,17.10
2019-03-15T05:44:05.312Z,16.00
2019-03-15T05:46:34.228Z,17.43
2019-03-15T05:49:03.120Z,17.67
2019-03-15T05:51:32.115Z,16.53
2019-03-15T05:54:01.296Z,17.43
2019-03-15T05:56:30.208Z,19.20
2019-03-15T05:58:59.332Z,17.13
2019-03-15T06:01:28.222Z,16.70
2019-03-15T06:03:57.365Z,16.90
2019-03-15T06:06:26.175Z,16.73
2019-03-15T06:08:54.967Z,17.17
2019-03-15T06:11:23.716Z,17.10
2019-03-15T06:13:52.676Z,17.07
2019-03-15T06:16:21.538Z,17.80
2019-03-15T06:18:50.440Z,17.67
2019-03-15T06:21:19.348Z,17.83
2019-03-15T06:23:48.124Z,17.50
2019-03-15T06:26:17.479Z,16.97
2019-03-15T06:28:46.303Z,17.80
2019-03-15T06:31:15.107Z,17.77
2019-03-15T06:33:43.853Z,18.17
2019-03-15T06:36:12.710Z,18.10
2019-03-15T06:38:41.592Z,18.20
2019-03-15T06:41:10.565Z,17.53
2019-03-15T06:43:39.476Z,17.47
2019-03-15T06:46:08.354Z,17.67
2019-03-15T06:48:56.351Z,18.70
2019-03-15T06:51:25.292Z,18.33
2019-03-15T06:53:54.845Z,17.30
2019-03-15T06:56:25.715Z,18.07
2019-03-15T06:58:54.523Z,18.83
2019-03-15T07:01:25.467Z,18.80
2019-03-15T07:03:54.471Z,18.67
2019-03-15T07:06:23.659Z,18.37
2019-03-15T07:08:52.564Z,19.27
2019-03-15T07:11:21.411Z,19.80
2019-03-15T07:13:50.309Z,18.93
2019-03-15T07:16:19.146Z,20.00
2019-03-15T07:18:48.121Z,18.80
2019-03-15T07:21:17.087Z,19.77
2019-03-15T07:23:46.691Z,19.40
2019-03-15T07:26:15.578Z,19.90
2019-03-15T07:28:44.343Z,19.97
2019-03-15T07:31:13.787Z,19.43
2019-03-15T07:33:42.907Z,19.47
2019-03-15T07:36:11.870Z,19.30
2019-03-15T07:38:40.938Z,18.90
2019-03-15T07:41:09.759Z,18.93
2019-03-15T07:43:38.752Z,19.10
2019-03-15T07:46:07.637Z,19.77
2019-03-15T07:48:36.460Z,20.57
2019-03-15T07:51:05.388Z,19.37
2019-03-15T07:53:35.515Z,18.80
2019-03-15T07:56:04.683Z,19.00
2019-03-15T07:58:33.789Z,20.03
2019-03-15T08:01:02.887Z,19.50
2019-03-15T08:03:32.283Z,19.50
2019-03-15T08:06:01.941Z,19.90
2019-03-15T08:08:31.037Z,19.63
2019-03-15T08:11:00.055Z,18.73
2019-03-15T08:13:28.913Z,19.40
2019-03-15T08:15:57.940Z,19.90
2019-03-15T08:18:26.811Z,19.87
2019-03-15T08:20:56.041Z,20.10
2019-03-15T08:23:25.285Z,20.40
2019-03-15T08:25:54.323Z,20.17
2019-03-15T08:28:23.198Z,20.33
2019-03-15T08:30:51.984Z,21.17
2019-03-15T08:33:20.779Z,20.80
2019-03-15T08:35:49.561Z,23.03
2019-03-15T08:38:18.499Z,22.53
2019-03-15T08:40:47.327Z,20.40
2019-03-15T08:43:16.268Z,21.80
2019-03-15T08:45:45.504Z,20.87
2019-03-15T08:48:14.452Z,22.20
2019-03-15T08:50:43.364Z,21.90
2019-03-15T08:53:12.510Z,21.87
2019-03-15T08:55:41.429Z,20.90
2019-03-15T08:58:14.557Z,21.77
2019-03-15T09:00:45.076Z,23.60
2019-03-15T09:03:22.770Z,21.90
2019-03-15T09:05:44.560Z,23.33
2019-03-15T09:08:13.416Z,22.53
2019-03-15T09:10:42.364Z,22.43
2019-03-15T09:13:11.860Z,21.33
2019-03-15T09:15:41.001Z,21.60
2019-03-15T09:18:10.185Z,22.27
2019-03-15T09:20:39.163Z,23.47
2019-03-15T09:23:08.120Z,22.23
2019-03-15T09:25:36.919Z,21.83
2019-03-15T09:28:05.689Z,21.40
2019-03-15T09:30:34.650Z,21.40
2019-03-15T09:33:04.180Z,22.07
2019-03-15T09:35:33.647Z,22.63
2019-03-15T09:38:02.572Z,22.40
2019-03-15T09:40:31.632Z,22.53
2019-03-15T09:43:00.475Z,21.83
2019-03-15T09:45:29.564Z,21.53
2019-03-15T09:47:58.339Z,22.73
2019-03-15T09:50:35.976Z,22.03
2019-03-15T09:52:57.932Z,23.17
2019-03-15T09:55:32.943Z,22.00
2019-03-15T09:57:57.411Z,22.57
2019-03-15T10:00:26.307Z,22.20
2019-03-15T10:02:56.150Z,22.60
2019-03-15T10:05:25.231Z,22.83
2019-03-15T10:07:54.126Z,23.83
2019-03-15T10:10:23.120Z,24.70
2019-03-15T10:13:04.653Z,22.60
2019-03-15T10:15:26.040Z,23.40
2019-03-15T10:17:53.624Z,24.03
2019-03-15T10:20:22.563Z,23.03
2019-03-15T10:23:04.659Z,21.40
2019-03-15T10:25:22.045Z,23.27
2019-03-15T10:27:50.985Z,23.93
2019-03-15T10:30:20.324Z,24.90
2019-03-15T10:32:49.529Z,25.40
2019-03-15T10:35:18.584Z,24.70
2019-03-15T10:37:47.666Z,23.63
2019-03-15T10:40:17.156Z,22.17
2019-03-15T10:42:45.992Z,24.00
2019-03-15T10:45:14.997Z,23.67
2019-03-15T10:47:43.963Z,23.03
2019-03-15T10:50:13.008Z,23.73
2019-03-15T10:52:41.896Z,22.67
2019-03-15T10:55:11.126Z,24.20
2019-03-15T10:57:40.072Z,22.00
2019-03-15T11:00:11.446Z,23.67
2019-03-15T11:02:40.772Z,22.70
2019-03-15T11:05:10.188Z,23.70
2019-03-15T11:07:39.196Z,22.07
2019-03-15T11:10:08.416Z,22.57
2019-03-15T11:12:37.529Z,24.40
2019-03-15T11:15:07.179Z,22.60
2019-03-15T11:17:35.924Z,22.53
2019-03-15T11:20:05.259Z,23.13
2019-03-15T11:22:34.012Z,23.40
2019-03-15T11:25:02.951Z,21.60
2019-03-15T11:27:31.759Z,25.00
2019-03-15T11:30:00.668Z,23.27
2019-03-15T11:32:29.668Z,23.93
2019-03-15T11:34:58.814Z,24.90
2019-03-15T11:37:27.811Z,22.80
2019-03-15T11:39:56.595Z,23.37
2019-03-15T11:42:25.532Z,24.50
2019-03-15T11:44:55.051Z,22.60
2019-03-15T11:47:23.896Z,24.70
2019-03-15T11:49:52.803Z,25.60
2019-03-15T11:52:21.531Z,23.80
2019-03-15T11:54:50.763Z,21.80
2019-03-15T11:57:19.647Z,23.27
2019-03-15T11:59:48.424Z,22.50
2019-03-15T12:02:18.296Z,21.10
2019-03-15T12:04:47.291Z,20.70
2019-03-15T12:07:16.189Z,20.97
2019-03-15T12:09:45.169Z,21.70
2019-03-15T12:12:14.410Z,21.20
2019-03-15T12:14:43.469Z,20.47
2019-03-15T12:17:12.320Z,20.70
2019-03-15T12:19:41.620Z,21.70
2019-03-15T12:22:10.649Z,20.63
2019-03-15T12:24:39.401Z,19.97
2019-03-15T12:27:08.332Z,20.50
2019-03-15T12:29:37.630Z,20.37
2019-03-15T12:32:06.897Z,20.27
2019-03-15T12:34:35.684Z,20.20
2019-03-15T12:37:04.987Z,20.00
2019-03-15T12:39:33.788Z,20.13
2019-03-15T12:42:03.120Z,19.80
2019-03-15T12:44:32.036Z,20.23
2019-03-15T12:47:00.971Z,20.30
2019-03-15T12:49:30.027Z,20.00
2019-03-15T12:51:58.876Z,20.07
2019-03-15T12:54:28.006Z,19.40
2019-03-15T12:56:56.845Z,18.73
2019-03-15T12:59:25.695Z,18.97
2019-03-15T13:01:54.500Z,18.23
2019-03-15T13:04:24.026Z,18.67
2019-03-15T13:06:52.894Z,17.73
2019-03-15T13:09:21.768Z,17.93
2019-03-15T13:11:50.739Z,17.03
2019-03-15T13:14:19.648Z,17.10
2019-03-15T13:16:48.567Z,17.80
2019-03-15T13:19:17.380Z,17.70
2019-03-15T13:21:46.191Z,17.57
2019-03-15T13:24:15.923Z,16.90
2019-03-15T13:26:45.008Z,17.10
2019-03-15T13:29:13.875Z,17.23
2019-03-15T13:31:42.832Z,18.57
2019-03-15T13:34:11.841Z,17.10
2019-03-15T13:36:40.783Z,17.17
2019-03-15T13:39:11.332Z,17.13
2019-03-15T13:41:40.310Z,17.70
2019-03-15T13:44:09.550Z,17.77
2019-03-15T13:46:38.691Z,17.07
2019-03-15T13:49:07.585Z,17.10
2019-03-15T13:51:36.604Z,16.30
2019-03-15T13:54:05.970Z,16.40
2019-03-15T13:56:35.449Z,16.70
2019-03-15T13:59:04.424Z,15.60
2019-03-15T14:01:33.431Z,15.10
2019-03-15T14:04:02.254Z,14.70
2019-03-15T14:06:31.223Z,14.90
2019-03-15T14:08:59.987Z,14.50
2019-03-15T14:11:28.823Z,14.40
2019-03-15T14:13:57.818Z,13.60
2019-03-15T14:16:27.009Z,14.40
2019-03-15T14:18:55.784Z,13.50
2019-03-15T14:21:24.711Z,13.63
2019-03-15T14:23:53.556Z,12.90
2019-03-15T14:26:22.442Z,12.63
2019-03-15T14:28:51.232Z,12.53
2019-03-15T14:31:21.625Z,12.90
2019-03-15T14:33:50.800Z,12.10
2019-03-15T14:36:19.792Z,12.63
2019-03-15T14:38:48.724Z,14.50
2019-03-15T14:41:17.659Z,12.27
2019-03-15T14:43:46.555Z,12.50
2019-03-15T14:46:15.372Z,12.00
2019-03-15T14:48:44.859Z,12.83
2019-03-15T14:51:13.811Z,12.10
2019-03-15T14:53:42.738Z,11.50
2019-03-15T14:56:11.736Z,11.37
2019-03-15T14:58:41.963Z,10.40
2019-03-15T15:01:10.867Z,9.87
2019-03-15T15:03:39.866Z,8.90
2019-03-15T15:06:08.712Z,9.17
2019-03-15T15:08:37.704Z,9.40
2019-03-15T15:11:06.677Z,9.77
2019-03-15T15:13:35.854Z,8.30
2019-03-15T15:16:04.733Z,8.30
2019-03-15T15:18:33.590Z,8.40
2019-03-15T15:21:02.950Z,8.80
2019-03-15T15:23:34.666Z,8.13
2019-03-15T15:26:02.997Z,7.83
2019-03-15T15:28:32.010Z,8.37
2019-03-15T15:31:00.779Z,9.50
2019-03-15T15:33:29.728Z,9.60
2019-03-15T15:35:58.680Z,9.10
2019-03-15T15:38:27.558Z,10.10
2019-03-15T15:41:00.891Z,9.80
2019-03-15T15:43:29.859Z,9.87
2019-03-15T15:45:58.719Z,9.50
2019-03-15T15:48:27.747Z,9.87
2019-03-15T15:50:57.065Z,10.10
2019-03-15T15:53:35.253Z,10.30
2019-03-15T15:56:04.665Z,10.50
2019-03-15T15:58:33.670Z,11.30
2019-03-15T16:01:02.738Z,21.50
2019-03-15T16:03:31.612Z,11.70
2019-03-15T16:06:00.805Z,13.63
2019-03-15T16:08:30.888Z,12.90
2019-03-15T16:11:01.014Z,12.53
2019-03-15T16:13:30.083Z,13.33
2019-03-15T16:15:59.425Z,13.40
2019-03-15T16:18:28.409Z,12.93
2019-03-15T16:20:57.674Z,13.03
2019-03-15T16:23:30.173Z,12.83
2019-03-15T16:25:58.219Z,12.60
2019-03-15T16:28:32.321Z,12.10
2019-03-15T16:30:58.539Z,12.43
2019-03-15T16:33:27.470Z,11.60
2019-03-15T16:35:57.354Z,12.27
2019-03-15T16:38:26.275Z,12.60
2019-03-15T16:40:55.372Z,12.50
2019-03-15T16:43:24.459Z,12.13
2019-03-15T16:45:53.319Z,13.13
2019-03-15T16:48:22.243Z,12.80
2019-03-15T16:50:52.010Z,12.83
2019-03-15T16:53:21.155Z,13.23
2019-03-15T16:55:50.924Z,14.10
2019-03-15T16:58:19.972Z,13.70
2019-03-15T17:00:49.083Z,13.30
2019-03-15T17:03:18.051Z,13.60
2019-03-15T17:05:47.087Z,13.60
2019-03-15T17:08:16.147Z,13.60
2019-03-15T17:10:45.031Z,13.40
2019-03-15T17:13:14.123Z,14.07
2019-03-15T17:15:43.000Z,13.70
2019-03-15T17:18:12.511Z,14.37
2019-03-15T17:20:41.353Z,14.20
2019-03-15T17:23:10.237Z,14.20
2019-03-15T17:25:39.660Z,14.80
2019-03-15T17:28:08.512Z,14.40
2019-03-15T17:30:37.491Z,14.10
2019-03-15T17:33:06.443Z,14.50
2019-03-15T17:35:35.385Z,14.40
2019-03-15T17:38:04.451Z,14.40
2019-03-15T17:40:33.315Z,13.27
2019-03-15T17:43:02.231Z,13.73
2019-03-15T17:45:31.055Z,13.57
2019-03-15T17:47:59.912Z,13.50
2019-03-15T17:50:28.809Z,13.70
2019-03-15T17:52:57.955Z,13.57
2019-03-15T17:55:26.939Z,13.87
2019-03-15T17:57:55.780Z,13.70
2019-03-15T18:00:29.836Z,15.93
2019-03-15T18:02:58.755Z,15.43
2019-03-15T18:05:28.037Z,14.67
2019-03-15T18:07:57.176Z,14.83
2019-03-15T18:10:26.592Z,15.70
2019-03-15T18:12:55.488Z,16.10
2019-03-15T18:15:24.947Z,16.00
2019-03-15T18:17:53.801Z,15.77
2019-03-15T18:20:23.143Z,15.23
2019-03-15T18:22:52.051Z,13.30
2019-03-15T18:25:21.264Z,13.60
2019-03-15T18:27:50.611Z,12.67
2019-03-15T18:30:19.692Z,11.97
2019-03-15T18:32:48.727Z,11.63
2019-03-15T18:35:17.660Z,11.30
2019-03-15T18:37:46.832Z,9.80
2019-03-15T18:40:16.267Z,10.37
2019-03-15T18:42:45.152Z,9.70
2019-03-15T18:45:14.248Z,7.10
2019-03-15T18:47:55.120Z,13.23
2019-03-15T18:50:24.185Z,16.77
2019-03-15T18:52:53.183Z,13.90
2019-03-15T18:55:22.016Z,5.90
2019-03-15T18:57:51.942Z,7.30
2019-03-15T19:00:22.983Z,6.30
2019-03-15T19:02:52.212Z,4.60
2019-03-15T19:05:23.171Z,3.83
2019-03-15T19:07:51.968Z,3.67
2019-03-15T19:10:23.962Z,3.90
2019-03-15T19:12:52.831Z,3.20
2019-03-15T19:15:21.935Z,3.30
2019-03-15T19:17:53.053Z,4.00
2019-03-15T19:20:21.869Z,3.60
2019-03-15T19:22:51.032Z,27.73
2019-03-15T19:25:19.920Z,3.97
2019-03-15T19:27:48.791Z,5.07
2019-03-15T19:30:17.739Z,4.10
2019-03-15T19:32:46.561Z,4.33
2019-03-15T19:35:15.727Z,3.70
2019-03-15T19:37:45.109Z,4.40
2019-03-15T19:40:14.130Z,6.17
2019-03-15T19:42:45.169Z,4.50
2019-03-15T19:45:13.771Z,5.03
2019-03-15T19:47:43.303Z,5.37
2019-03-15T19:50:14.122Z,6.17
2019-03-15T19:52:43.610Z,7.77
2019-03-15T19:55:12.803Z,8.10
2019-03-15T19:57:41.663Z,7.53
2019-03-15T20:00:12.789Z,8.00
2019-03-15T20:02:41.888Z,9.40
2019-03-15T20:05:12.875Z,10.67
2019-03-15T20:07:41.886Z,11.50
2019-03-15T20:10:11.847Z,11.17
2019-03-15T20:12:40.802Z,11.00
2019-03-15T20:15:10.589Z,10.17
2019-03-15T20:17:39.594Z,9.23
2019-03-15T20:20:09.746Z,9.70
2019-03-15T20:22:38.573Z,13.57
2019-03-15T20:25:26.596Z,16.40
2019-03-15T20:27:56.686Z,17.80
2019-03-15T20:30:26.891Z,17.50
2019-03-15T20:32:55.964Z,17.07
2019-03-15T20:35:24.748Z,16.27
2019-03-15T20:37:53.568Z,15.67
2019-03-15T20:40:22.314Z,16.83
2019-03-15T20:42:51.118Z,15.37
2019-03-15T20:45:19.993Z,16.30
2019-03-15T20:47:49.817Z,16.90
2019-03-15T20:50:18.668Z,17.43
2019-03-15T20:52:48.805Z,16.30
2019-03-15T20:55:17.734Z,16.67
2019-03-15T20:57:46.696Z,16.20
2019-03-15T21:00:15.777Z,16.37
2019-03-15T21:02:44.744Z,15.93
2019-03-15T21:05:13.772Z,16.00
2019-03-15T21:07:43.780Z,16.40
2019-03-15T21:10:13.329Z,16.33
2019-03-15T21:12:42.508Z,17.27
2019-03-15T21:15:12.236Z,16.17
2019-03-15T21:17:41.208Z,16.70
2019-03-15T21:20:10.904Z,17.60
2019-03-15T21:22:40.509Z,17.40
2019-03-15T21:25:09.801Z,17.57
2019-03-15T21:27:52.493Z,17.40
2019-03-15T21:30:11.881Z,17.47
2019-03-15T21:32:40.855Z,16.77
2019-03-15T21:35:10.009Z,15.43
2019-03-15T21:37:38.887Z,15.67
2019-03-15T21:40:08.831Z,16.97
2019-03-15T21:42:37.978Z,17.70
2019-03-15T21:45:06.995Z,18.00
2019-03-15T21:47:36.290Z,18.23
2019-03-15T21:50:05.991Z,18.53
2019-03-15T21:52:36.429Z,19.27
2019-03-15T21:55:05.929Z,19.90
2019-03-15T21:57:35.844Z,20.60
2019-03-15T22:00:05.428Z,19.50
2019-03-15T22:02:34.414Z,19.97
2019-03-15T22:05:03.246Z,20.10
2019-03-15T22:07:32.043Z,20.33
2019-03-15T22:10:00.830Z,19.27
2019-03-15T22:12:30.184Z,20.63
2019-03-15T22:14:59.421Z,20.43
2019-03-15T22:17:28.476Z,19.57
2019-03-15T22:19:57.327Z,19.33
2019-03-15T22:22:26.122Z,20.10
2019-03-15T22:24:54.865Z,19.60
2019-03-15T22:27:23.659Z,20.67
2019-03-15T22:29:53.665Z,19.80
2019-03-15T22:32:22.945Z,19.73
2019-03-15T22:34:51.680Z,19.87
2019-03-15T22:37:20.494Z,19.00
2019-03-15T22:39:49.556Z,20.43
2019-03-15T22:42:18.378Z,20.03
2019-03-15T22:44:47.147Z,20.23
2019-03-15T22:47:15.928Z,19.10
2019-03-15T22:49:44.851Z,19.87
2019-03-15T22:52:13.934Z,20.77
2019-03-15T22:54:43.263Z,20.47
2019-03-15T22:57:12.168Z,20.50
2019-03-15T22:59:41.041Z,20.53
2019-03-15T23:02:10.298Z,20.43
2019-03-15T23:04:39.350Z,20.70
2019-03-15T23:07:08.316Z,20.77
2019-03-15T23:09:37.052Z,21.23
2019-03-15T23:12:05.995Z,21.30
2019-03-15T23:14:34.789Z,20.90
2019-03-15T23:17:03.664Z,20.70
2019-03-15T23:19:32.526Z,20.60
2019-03-15T23:22:01.353Z,20.90
2019-03-15T23:24:30.451Z,18.80
2019-03-15T23:26:59.219Z,20.53
2019-03-15T23:29:28.801Z,20.43
2019-03-15T23:31:57.872Z,19.70
2019-03-15T23:34:26.732Z,20.40
2019-03-15T23:36:55.643Z,20.40
2019-03-15T23:39:24.384Z,20.67
2019-03-15T23:41:55.262Z,21.17
2019-03-15T23:44:23.774Z,20.83
2019-03-15T23:46:52.668Z,20.00
2019-03-15T23:49:21.463Z,21.00
2019-03-15T23:51:50.403Z,20.80
2019-03-15T23:54:19.324Z,19.90
2019-03-15T23:56:48.215Z,20.30
2019-03-15T23:59:17.304Z,21.17
